sensor_id;sensor_type;location;lat;lon;timestamp;P1;durP1;ratioP1;P2;durP2;ratioP2
7179;SDS011;3631;42.152;24.756;2022-09-09T00:00:25;13.35;;;12.13;;
7179;SDS011;3631;42.152;24.756;2022-09-09T00:02:59;13.48;;;12.13;;
7179;SDS011;3631;42.152;24.756;2022-09-09T00:05:35;16.17;;;12.32;;
7179;SDS011;3631;42.152;24.756;2022-09-09T00:08:11;12.73;;;11.73;;
7179;SDS011;3631;42.152;24.756;2022-09-09T00:10:43;12.32;;;11.23;;
7179;SDS011;3631;42.152;24.756;2022-09-09T00:13:13;11.90;;;10.80;;
7179;SDS011;3631;42.152;24.756;2022-09-09T00:15:46;10.85;;;9.90;;
7179;SDS011;3631;42.152;24.756;2022-09-09T00:18:23;13.65;;;9.60;;
7179;SDS011;3631;42.152;24.756;2022-09-09T00:20:55;9.57;;;8.82;;
7179;SDS011;3631;42.152;24.756;2022-09-09T00:23:32;12.00;;;8.27;;
7179;SDS011;3631;42.152;24.756;2022-09-09T00:26:03;10.90;;;9.68;;
7179;SDS011;3631;42.152;24.756;2022-09-09T00:28:38;10.80;;;9.80;;
7179;SDS011;3631;42.152;24.756;2022-09-09T00:31:12;9.93;;;9.10;;
7179;SDS011;3631;42.152;24.756;2022-09-09T00:33:40;10.18;;;9.40;;
7179;SDS011;3631;42.152;24.756;2022-09-09T00:36:10;12.82;;;9.10;;
7179;SDS011;3631;42.152;24.756;2022-09-09T00:38:44;10.45;;;9.60;;
7179;SDS011;3631;42.152;24.756;2022-09-09T00:41:16;10.68;;;9.77;;
7179;SDS011;3631;42.152;24.756;2022-09-09T00:43:50;19.83;;;9.68;;
7179;SDS011;3631;42.152;24.756;2022-09-09T00:49:20;10.93;;;9.83;;
7179;SDS011;3631;42.152;24.756;2022-09-09T00:51:56;10.30;;;9.45;;
7179;SDS011;3631;42.152;24.756;2022-09-09T00:54:37;11.75;;;10.50;;
7179;SDS011;3631;42.152;24.756;2022-09-09T00:57:16;11.40;;;10.07;;
7179;SDS011;3631;42.152;24.756;2022-09-09T00:59:50;15.85;;;10.70;;
7179;SDS011;3631;42.152;24.756;2022-09-09T01:02:26;12.32;;;10.80;;
7179;SDS011;3631;42.152;24.756;2022-09-09T01:04:56;13.95;;;10.50;;
7179;SDS011;3631;42.152;24.756;2022-09-09T01:07:26;11.33;;;10.40;;
7179;SDS011;3631;42.152;24.756;2022-09-09T01:09:56;11.80;;;10.77;;
7179;SDS011;3631;42.152;24.756;2022-09-09T01:12:26;10.60;;;9.57;;
7179;SDS011;3631;42.152;24.756;2022-09-09T01:15:08;12.60;;;9.87;;
7179;SDS011;3631;42.152;24.756;2022-09-09T01:17:44;10.80;;;9.75;;
7179;SDS011;3631;42.152;24.756;2022-09-09T01:20:17;12.77;;;10.57;;
7179;SDS011;3631;42.152;24.756;2022-09-09T01:22:54;10.82;;;9.88;;
7179;SDS011;3631;42.152;24.756;2022-09-09T01:25:56;11.10;;;10.07;;
7179;SDS011;3631;42.152;24.756;2022-09-09T01:28:42;10.25;;;9.27;;
7179;SDS011;3631;42.152;24.756;2022-09-09T01:31:13;10.55;;;9.65;;
7179;SDS011;3631;42.152;24.756;2022-09-09T01:33:43;10.70;;;9.88;;
7179;SDS011;3631;42.152;24.756;2022-09-09T01:36:11;11.35;;;9.48;;
7179;SDS011;3631;42.152;24.756;2022-09-09T01:38:41;11.95;;;9.55;;
7179;SDS011;3631;42.152;24.756;2022-09-09T01:41:10;11.85;;;9.65;;
7179;SDS011;3631;42.152;24.756;2022-09-09T01:43:36;14.02;;;9.20;;
7179;SDS011;3631;42.152;24.756;2022-09-09T01:46:04;10.75;;;9.70;;
7179;SDS011;3631;42.152;24.756;2022-09-09T01:48:31;10.30;;;9.27;;
7179;SDS011;3631;42.152;24.756;2022-09-09T01:50:58;9.15;;;8.43;;
7179;SDS011;3631;42.152;24.756;2022-09-09T01:53:25;10.77;;;9.40;;
7179;SDS011;3631;42.152;24.756;2022-09-09T01:55:55;9.73;;;7.68;;
7179;SDS011;3631;42.152;24.756;2022-09-09T01:58:34;7.95;;;7.00;;
7179;SDS011;3631;42.152;24.756;2022-09-09T02:01:12;7.47;;;6.73;;
7179;SDS011;3631;42.152;24.756;2022-09-09T02:03:47;10.02;;;7.30;;
7179;SDS011;3631;42.152;24.756;2022-09-09T02:06:23;9.70;;;7.63;;
7179;SDS011;3631;42.152;24.756;2022-09-09T02:08:55;6.97;;;6.57;;
7179;SDS011;3631;42.152;24.756;2022-09-09T02:11:25;7.93;;;7.22;;
7179;SDS011;3631;42.152;24.756;2022-09-09T02:13:56;7.55;;;6.82;;
7179;SDS011;3631;42.152;24.756;2022-09-09T02:16:28;10.52;;;7.40;;
7179;SDS011;3631;42.152;24.756;2022-09-09T02:19:01;10.00;;;6.97;;
7179;SDS011;3631;42.152;24.756;2022-09-09T02:21:33;8.00;;;7.18;;
7179;SDS011;3631;42.152;24.756;2022-09-09T02:24:02;11.50;;;8.43;;
7179;SDS011;3631;42.152;24.756;2022-09-09T02:26:33;8.77;;;7.95;;
7179;SDS011;3631;42.152;24.756;2022-09-09T02:29:05;10.20;;;8.88;;
7179;SDS011;3631;42.152;24.756;2022-09-09T02:31:35;13.20;;;11.63;;
7179;SDS011;3631;42.152;24.756;2022-09-09T02:34:04;13.60;;;11.77;;
7179;SDS011;3631;42.152;24.756;2022-09-09T02:36:36;16.40;;;12.47;;
7179;SDS011;3631;42.152;24.756;2022-09-09T02:39:05;13.40;;;12.07;;
7179;SDS011;3631;42.152;24.756;2022-09-09T02:41:36;15.98;;;13.27;;
7179;SDS011;3631;42.152;24.756;2022-09-09T02:44:08;15.45;;;13.90;;
7179;SDS011;3631;42.152;24.756;2022-09-09T02:46:42;20.63;;;14.88;;
7179;SDS011;3631;42.152;24.756;2022-09-09T02:49:25;14.38;;;12.95;;
7179;SDS011;3631;42.152;24.756;2022-09-09T02:52:00;14.60;;;11.90;;
7179;SDS011;3631;42.152;24.756;2022-09-09T02:54:31;14.95;;;11.30;;
7179;SDS011;3631;42.152;24.756;2022-09-09T02:57:00;14.90;;;11.63;;
7179;SDS011;3631;42.152;24.756;2022-09-09T02:59:32;12.88;;;10.40;;
7179;SDS011;3631;42.152;24.756;2022-09-09T03:02:00;14.95;;;10.52;;
7179;SDS011;3631;42.152;24.756;2022-09-09T03:04:27;16.60;;;10.43;;
7179;SDS011;3631;42.152;24.756;2022-09-09T03:06:55;14.25;;;9.43;;
7179;SDS011;3631;42.152;24.756;2022-09-09T03:09:22;10.43;;;8.82;;
7179;SDS011;3631;42.152;24.756;2022-09-09T03:11:49;11.45;;;10.32;;
7179;SDS011;3631;42.152;24.756;2022-09-09T03:14:16;12.45;;;9.55;;
7179;SDS011;3631;42.152;24.756;2022-09-09T03:16:47;9.98;;;8.10;;
7179;SDS011;3631;42.152;24.756;2022-09-09T03:19:14;8.52;;;7.70;;
7179;SDS011;3631;42.152;24.756;2022-09-09T03:21:41;9.80;;;8.90;;
7179;SDS011;3631;42.152;24.756;2022-09-09T03:24:08;9.38;;;8.68;;
7179;SDS011;3631;42.152;24.756;2022-09-09T03:26:35;9.95;;;8.90;;
7179;SDS011;3631;42.152;24.756;2022-09-09T03:29:02;9.68;;;8.68;;
7179;SDS011;3631;42.152;24.756;2022-09-09T03:31:31;11.43;;;8.32;;
7179;SDS011;3631;42.152;24.756;2022-09-09T03:33:59;14.63;;;9.63;;
7179;SDS011;3631;42.152;24.756;2022-09-09T03:36:27;9.37;;;8.47;;
7179;SDS011;3631;42.152;24.756;2022-09-09T03:38:54;15.67;;;9.27;;
7179;SDS011;3631;42.152;24.756;2022-09-09T03:41:21;15.10;;;10.17;;
7179;SDS011;3631;42.152;24.756;2022-09-09T03:43:49;11.07;;;9.93;;
7179;SDS011;3631;42.152;24.756;2022-09-09T03:46:16;13.57;;;11.73;;
7179;SDS011;3631;42.152;24.756;2022-09-09T03:48:43;15.67;;;13.17;;
7179;SDS011;3631;42.152;24.756;2022-09-09T03:51:11;14.43;;;12.90;;
7179;SDS011;3631;42.152;24.756;2022-09-09T03:53:40;15.90;;;14.33;;
7179;SDS011;3631;42.152;24.756;2022-09-09T03:56:07;15.67;;;14.17;;
7179;SDS011;3631;42.152;24.756;2022-09-09T03:58:34;15.37;;;13.77;;
7179;SDS011;3631;42.152;24.756;2022-09-09T04:01:03;17.40;;;14.67;;
7179;SDS011;3631;42.152;24.756;2022-09-09T04:03:33;17.03;;;13.63;;
7179;SDS011;3631;42.152;24.756;2022-09-09T04:06:00;14.87;;;12.83;;
7179;SDS011;3631;42.152;24.756;2022-09-09T04:08:33;16.43;;;12.93;;
7179;SDS011;3631;42.152;24.756;2022-09-09T04:11:01;18.20;;;12.87;;
7179;SDS011;3631;42.152;24.756;2022-09-09T04:13:31;15.23;;;13.60;;
7179;SDS011;3631;42.152;24.756;2022-09-09T04:15:59;17.10;;;13.93;;
7179;SDS011;3631;42.152;24.756;2022-09-09T04:18:28;19.10;;;14.30;;
7179;SDS011;3631;42.152;24.756;2022-09-09T04:20:55;19.00;;;14.90;;
7179;SDS011;3631;42.152;24.756;2022-09-09T04:23:23;25.37;;;17.47;;
7179;SDS011;3631;42.152;24.756;2022-09-09T04:25:53;19.47;;;15.47;;
7179;SDS011;3631;42.152;24.756;2022-09-09T04:28:22;16.53;;;14.67;;
7179;SDS011;3631;42.152;24.756;2022-09-09T04:30:50;20.77;;;15.80;;
7179;SDS011;3631;42.152;24.756;2022-09-09T04:33:18;16.73;;;15.17;;
7179;SDS011;3631;42.152;24.756;2022-09-09T04:35:45;15.67;;;14.17;;
7179;SDS011;3631;42.152;24.756;2022-09-09T04:38:13;18.58;;;14.75;;
7179;SDS011;3631;42.152;24.756;2022-09-09T04:40:41;15.77;;;14.33;;
7179;SDS011;3631;42.152;24.756;2022-09-09T04:43:10;18.20;;;15.33;;
7179;SDS011;3631;42.152;24.756;2022-09-09T04:45:37;15.52;;;14.02;;
7179;SDS011;3631;42.152;24.756;2022-09-09T04:48:05;17.05;;;14.90;;
7179;SDS011;3631;42.152;24.756;2022-09-09T04:50:32;21.20;;;15.52;;
7179;SDS011;3631;42.152;24.756;2022-09-09T04:53:00;17.58;;;14.43;;
7179;SDS011;3631;42.152;24.756;2022-09-09T04:55:27;16.73;;;14.98;;
7179;SDS011;3631;42.152;24.756;2022-09-09T04:57:55;15.90;;;14.27;;
7179;SDS011;3631;42.152;24.756;2022-09-09T05:00:24;17.90;;;14.73;;
7179;SDS011;3631;42.152;24.756;2022-09-09T05:02:51;22.73;;;13.40;;
7179;SDS011;3631;42.152;24.756;2022-09-09T05:05:18;21.02;;;14.25;;
7179;SDS011;3631;42.152;24.756;2022-09-09T05:07:45;15.48;;;13.32;;
7179;SDS011;3631;42.152;24.756;2022-09-09T05:10:13;15.52;;;11.82;;
7179;SDS011;3631;42.152;24.756;2022-09-09T05:12:41;14.50;;;11.75;;
7179;SDS011;3631;42.152;24.756;2022-09-09T05:15:09;12.90;;;10.77;;
7179;SDS011;3631;42.152;24.756;2022-09-09T05:17:38;12.18;;;10.10;;
7179;SDS011;3631;42.152;24.756;2022-09-09T05:20:05;11.00;;;10.07;;
7179;SDS011;3631;42.152;24.756;2022-09-09T05:22:32;15.35;;;10.80;;
7179;SDS011;3631;42.152;24.756;2022-09-09T05:24:59;12.30;;;11.18;;
7179;SDS011;3631;42.152;24.756;2022-09-09T05:27:26;11.63;;;10.40;;
7179;SDS011;3631;42.152;24.756;2022-09-09T05:29:53;11.68;;;9.48;;
7179;SDS011;3631;42.152;24.756;2022-09-09T05:32:20;22.75;;;10.20;;
7179;SDS011;3631;42.152;24.756;2022-09-09T05:34:48;15.73;;;9.50;;
7179;SDS011;3631;42.152;24.756;2022-09-09T05:37:16;15.02;;;10.00;;
7179;SDS011;3631;42.152;24.756;2022-09-09T05:39:43;9.98;;;9.15;;
7179;SDS011;3631;42.152;24.756;2022-09-09T05:42:10;11.68;;;9.32;;
7179;SDS011;3631;42.152;24.756;2022-09-09T05:44:37;15.48;;;10.50;;
7179;SDS011;3631;42.152;24.756;2022-09-09T05:47:04;10.60;;;9.60;;
7179;SDS011;3631;42.152;24.756;2022-09-09T05:49:33;10.20;;;9.15;;
7179;SDS011;3631;42.152;24.756;2022-09-09T05:52:01;10.40;;;9.38;;
7179;SDS011;3631;42.152;24.756;2022-09-09T05:54:29;10.45;;;8.65;;
7179;SDS011;3631;42.152;24.756;2022-09-09T05:56:56;10.02;;;8.98;;
7179;SDS011;3631;42.152;24.756;2022-09-09T05:59:23;14.52;;;9.52;;
7179;SDS011;3631;42.152;24.756;2022-09-09T06:01:50;9.43;;;8.60;;
7179;SDS011;3631;42.152;24.756;2022-09-09T06:04:17;11.57;;;9.23;;
7179;SDS011;3631;42.152;24.756;2022-09-09T06:06:46;14.35;;;9.13;;
7179;SDS011;3631;42.152;24.756;2022-09-09T06:09:15;15.82;;;8.95;;
7179;SDS011;3631;42.152;24.756;2022-09-09T06:11:42;9.55;;;8.65;;
7179;SDS011;3631;42.152;24.756;2022-09-09T06:14:10;9.55;;;8.38;;
7179;SDS011;3631;42.152;24.756;2022-09-09T06:16:37;10.27;;;7.90;;
7179;SDS011;3631;42.152;24.756;2022-09-09T06:19:04;10.40;;;7.90;;
7179;SDS011;3631;42.152;24.756;2022-09-09T06:21:32;11.45;;;8.32;;
7179;SDS011;3631;42.152;24.756;2022-09-09T06:24:01;9.00;;;7.97;;
7179;SDS011;3631;42.152;24.756;2022-09-09T06:26:30;13.02;;;7.05;;
7179;SDS011;3631;42.152;24.756;2022-09-09T06:28:58;7.40;;;6.75;;
7179;SDS011;3631;42.152;24.756;2022-09-09T06:31:28;7.55;;;6.97;;
7179;SDS011;3631;42.152;24.756;2022-09-09T06:33:56;8.55;;;7.57;;
7179;SDS011;3631;42.152;24.756;2022-09-09T06:36:25;8.90;;;7.50;;
7179;SDS011;3631;42.152;24.756;2022-09-09T06:38:53;9.98;;;7.30;;
7179;SDS011;3631;42.152;24.756;2022-09-09T06:41:21;11.68;;;7.47;;
7179;SDS011;3631;42.152;24.756;2022-09-09T06:43:51;10.98;;;7.03;;
7179;SDS011;3631;42.152;24.756;2022-09-09T06:46:19;8.15;;;7.20;;
7179;SDS011;3631;42.152;24.756;2022-09-09T06:48:47;8.63;;;7.45;;
7179;SDS011;3631;42.152;24.756;2022-09-09T06:51:14;7.88;;;7.10;;
7179;SDS011;3631;42.152;24.756;2022-09-09T06:53:43;11.35;;;7.28;;
7179;SDS011;3631;42.152;24.756;2022-09-09T06:56:18;9.85;;;7.00;;
7179;SDS011;3631;42.152;24.756;2022-09-09T06:58:48;8.75;;;7.00;;
7179;SDS011;3631;42.152;24.756;2022-09-09T07:01:17;8.45;;;7.47;;
7179;SDS011;3631;42.152;24.756;2022-09-09T07:03:46;11.00;;;7.78;;
7179;SDS011;3631;42.152;24.756;2022-09-09T07:06:16;7.38;;;6.85;;
7179;SDS011;3631;42.152;24.756;2022-09-09T07:08:47;14.52;;;7.90;;
7179;SDS011;3631;42.152;24.756;2022-09-09T07:11:15;8.77;;;8.23;;
7179;SDS011;3631;42.152;24.756;2022-09-09T07:13:42;8.35;;;7.63;;
7179;SDS011;3631;42.152;24.756;2022-09-09T07:16:10;9.75;;;8.98;;
7179;SDS011;3631;42.152;24.756;2022-09-09T07:18:40;13.65;;;11.00;;
7179;SDS011;3631;42.152;24.756;2022-09-09T07:21:08;9.20;;;8.50;;
7179;SDS011;3631;42.152;24.756;2022-09-09T07:23:37;9.13;;;8.18;;
7179;SDS011;3631;42.152;24.756;2022-09-09T07:26:07;11.98;;;8.13;;
7179;SDS011;3631;42.152;24.756;2022-09-09T07:28:35;10.23;;;9.45;;
7179;SDS011;3631;42.152;24.756;2022-09-09T07:31:02;8.57;;;7.75;;
7179;SDS011;3631;42.152;24.756;2022-09-09T07:33:30;10.88;;;7.78;;
7179;SDS011;3631;42.152;24.756;2022-09-09T07:36:03;14.68;;;10.05;;
7179;SDS011;3631;42.152;24.756;2022-09-09T07:38:32;10.85;;;9.70;;
7179;SDS011;3631;42.152;24.756;2022-09-09T07:41:04;11.02;;;8.07;;
7179;SDS011;3631;42.152;24.756;2022-09-09T07:43:32;10.57;;;7.85;;
7179;SDS011;3631;42.152;24.756;2022-09-09T07:45:59;15.35;;;10.88;;
7179;SDS011;3631;42.152;24.756;2022-09-09T07:48:27;9.68;;;7.80;;
7179;SDS011;3631;42.152;24.756;2022-09-09T07:51:04;10.40;;;8.20;;
7179;SDS011;3631;42.152;24.756;2022-09-09T07:53:32;9.48;;;8.48;;
7179;SDS011;3631;42.152;24.756;2022-09-09T07:56:05;9.05;;;7.53;;
7179;SDS011;3631;42.152;24.756;2022-09-09T07:58:34;10.07;;;7.63;;
7179;SDS011;3631;42.152;24.756;2022-09-09T08:01:05;8.88;;;7.97;;
7179;SDS011;3631;42.152;24.756;2022-09-09T08:03:33;12.07;;;7.72;;
7179;SDS011;3631;42.152;24.756;2022-09-09T08:06:00;12.50;;;8.00;;
7179;SDS011;3631;42.152;24.756;2022-09-09T08:08:29;6.80;;;6.20;;
7179;SDS011;3631;42.152;24.756;2022-09-09T08:11:03;10.68;;;6.72;;
7179;SDS011;3631;42.152;24.756;2022-09-09T08:13:33;7.32;;;6.63;;
7179;SDS011;3631;42.152;24.756;2022-09-09T08:16:04;11.52;;;6.90;;
7179;SDS011;3631;42.152;24.756;2022-09-09T08:18:32;14.00;;;6.47;;
7179;SDS011;3631;42.152;24.756;2022-09-09T08:21:04;6.95;;;6.55;;
7179;SDS011;3631;42.152;24.756;2022-09-09T08:23:35;7.05;;;6.07;;
7179;SDS011;3631;42.152;24.756;2022-09-09T08:26:03;7.05;;;6.10;;
7179;SDS011;3631;42.152;24.756;2022-09-09T08:28:31;6.18;;;5.57;;
7179;SDS011;3631;42.152;24.756;2022-09-09T08:31:04;5.85;;;5.45;;
7179;SDS011;3631;42.152;24.756;2022-09-09T08:33:35;6.00;;;5.50;;
7179;SDS011;3631;42.152;24.756;2022-09-09T08:36:04;6.25;;;5.68;;
7179;SDS011;3631;42.152;24.756;2022-09-09T08:38:31;5.82;;;5.43;;
7179;SDS011;3631;42.152;24.756;2022-09-09T08:41:03;8.50;;;6.28;;
7179;SDS011;3631;42.152;24.756;2022-09-09T08:43:41;7.35;;;6.85;;
7179;SDS011;3631;42.152;24.756;2022-09-09T08:46:14;7.72;;;6.40;;
7179;SDS011;3631;42.152;24.756;2022-09-09T08:48:52;7.13;;;6.32;;
7179;SDS011;3631;42.152;24.756;2022-09-09T08:51:25;7.88;;;7.30;;
7179;SDS011;3631;42.152;24.756;2022-09-09T08:53:57;7.88;;;7.18;;
7179;SDS011;3631;42.152;24.756;2022-09-09T08:56:30;8.23;;;7.53;;
7179;SDS011;3631;42.152;24.756;2022-09-09T08:58:59;7.63;;;7.03;;
7179;SDS011;3631;42.152;24.756;2022-09-09T09:01:33;7.60;;;6.95;;
7179;SDS011;3631;42.152;24.756;2022-09-09T09:04:11;7.10;;;6.60;;
7179;SDS011;3631;42.152;24.756;2022-09-09T09:06:50;9.18;;;6.82;;
7179;SDS011;3631;42.152;24.756;2022-09-09T09:09:29;11.02;;;7.50;;
7179;SDS011;3631;42.152;24.756;2022-09-09T09:12:10;9.00;;;8.02;;
7179;SDS011;3631;42.152;24.756;2022-09-09T09:14:42;11.38;;;7.55;;
7179;SDS011;3631;42.152;24.756;2022-09-09T09:17:13;8.95;;;8.13;;
7179;SDS011;3631;42.152;24.756;2022-09-09T09:19:44;9.82;;;8.23;;
7179;SDS011;3631;42.152;24.756;2022-09-09T09:22:14;9.48;;;8.52;;
7179;SDS011;3631;42.152;24.756;2022-09-09T09:24:46;10.50;;;8.35;;
7179;SDS011;3631;42.152;24.756;2022-09-09T09:27:21;8.98;;;7.65;;
7179;SDS011;3631;42.152;24.756;2022-09-09T09:29:56;9.70;;;8.73;;
7179;SDS011;3631;42.152;24.756;2022-09-09T09:32:25;11.40;;;8.70;;
7179;SDS011;3631;42.152;24.756;2022-09-09T09:34:57;11.40;;;8.05;;
7179;SDS011;3631;42.152;24.756;2022-09-09T09:37:30;10.50;;;8.05;;
7179;SDS011;3631;42.152;24.756;2022-09-09T09:40:07;9.13;;;8.32;;
7179;SDS011;3631;42.152;24.756;2022-09-09T09:42:37;13.07;;;8.65;;
7179;SDS011;3631;42.152;24.756;2022-09-09T09:45:12;9.25;;;7.95;;
7179;SDS011;3631;42.152;24.756;2022-09-09T09:47:43;12.27;;;7.70;;
7179;SDS011;3631;42.152;24.756;2022-09-09T09:50:15;10.00;;;8.35;;
7179;SDS011;3631;42.152;24.756;2022-09-09T09:52:51;11.40;;;8.15;;
7179;SDS011;3631;42.152;24.756;2022-09-09T09:55:21;8.95;;;8.15;;
7179;SDS011;3631;42.152;24.756;2022-09-09T09:57:50;8.93;;;8.15;;
7179;SDS011;3631;42.152;24.756;2022-09-09T10:00:19;12.25;;;9.18;;
7179;SDS011;3631;42.152;24.756;2022-09-09T10:02:47;18.05;;;9.05;;
7179;SDS011;3631;42.152;24.756;2022-09-09T10:05:18;10.73;;;9.40;;
7179;SDS011;3631;42.152;24.756;2022-09-09T10:07:47;11.40;;;9.02;;
7179;SDS011;3631;42.152;24.756;2022-09-09T10:10:37;9.48;;;8.57;;
7179;SDS011;3631;42.152;24.756;2022-09-09T10:13:18;9.63;;;8.93;;
7179;SDS011;3631;42.152;24.756;2022-09-09T10:15:52;9.48;;;8.77;;
7179;SDS011;3631;42.152;24.756;2022-09-09T10:18:35;11.68;;;9.32;;
7179;SDS011;3631;42.152;24.756;2022-09-09T10:21:13;10.38;;;9.73;;
7179;SDS011;3631;42.152;24.756;2022-09-09T10:23:52;11.07;;;10.02;;
7179;SDS011;3631;42.152;24.756;2022-09-09T10:26:32;14.32;;;8.75;;
7179;SDS011;3631;42.152;24.756;2022-09-09T10:32:11;11.55;;;9.52;;
7179;SDS011;3631;42.152;24.756;2022-09-09T10:34:55;9.65;;;8.82;;
7179;SDS011;3631;42.152;24.756;2022-09-09T10:37:28;10.38;;;9.50;;
7179;SDS011;3631;42.152;24.756;2022-09-09T10:40:14;10.52;;;8.98;;
7179;SDS011;3631;42.152;24.756;2022-09-09T10:42:51;9.82;;;8.95;;
7179;SDS011;3631;42.152;24.756;2022-09-09T10:45:26;10.82;;;9.93;;
7179;SDS011;3631;42.152;24.756;2022-09-09T10:50:57;10.82;;;9.68;;
7179;SDS011;3631;42.152;24.756;2022-09-09T10:53:39;10.25;;;9.20;;
7179;SDS011;3631;42.152;24.756;2022-09-09T10:56:13;9.25;;;8.68;;
7179;SDS011;3631;42.152;24.756;2022-09-09T10:58:44;10.07;;;9.13;;
7179;SDS011;3631;42.152;24.756;2022-09-09T11:01:17;11.77;;;8.90;;
7179;SDS011;3631;42.152;24.756;2022-09-09T11:03:49;10.38;;;9.35;;
7179;SDS011;3631;42.152;24.756;2022-09-09T11:06:22;9.30;;;8.55;;
7179;SDS011;3631;42.152;24.756;2022-09-09T11:08:55;9.57;;;8.68;;
7179;SDS011;3631;42.152;24.756;2022-09-09T11:11:28;9.63;;;8.60;;
7179;SDS011;3631;42.152;24.756;2022-09-09T11:13:59;10.35;;;8.75;;
7179;SDS011;3631;42.152;24.756;2022-09-09T11:16:35;9.80;;;8.65;;
7179;SDS011;3631;42.152;24.756;2022-09-09T11:19:11;9.70;;;8.07;;
7179;SDS011;3631;42.152;24.756;2022-09-09T11:21:42;9.32;;;8.43;;
7179;SDS011;3631;42.152;24.756;2022-09-09T11:24:13;7.53;;;7.03;;
7179;SDS011;3631;42.152;24.756;2022-09-09T11:26:49;8.55;;;7.78;;
7179;SDS011;3631;42.152;24.756;2022-09-09T11:29:31;9.07;;;8.15;;
7179;SDS011;3631;42.152;24.756;2022-09-09T11:35:22;8.95;;;8.20;;
7179;SDS011;3631;42.152;24.756;2022-09-09T11:38:08;10.20;;;9.20;;
7179;SDS011;3631;42.152;24.756;2022-09-09T11:40:43;7.97;;;7.28;;
7179;SDS011;3631;42.152;24.756;2022-09-09T11:43:12;7.88;;;7.00;;
7179;SDS011;3631;42.152;24.756;2022-09-09T11:45:42;7.78;;;7.07;;
7179;SDS011;3631;42.152;24.756;2022-09-09T11:48:22;7.45;;;6.53;;
7179;SDS011;3631;42.152;24.756;2022-09-09T11:51:00;7.35;;;6.75;;
7179;SDS011;3631;42.152;24.756;2022-09-09T11:53:30;7.65;;;6.80;;
7179;SDS011;3631;42.152;24.756;2022-09-09T11:56:05;6.32;;;5.85;;
7179;SDS011;3631;42.152;24.756;2022-09-09T11:58:39;16.35;;;14.80;;
7179;SDS011;3631;42.152;24.756;2022-09-09T12:01:15;13.80;;;9.35;;
7179;SDS011;3631;42.152;24.756;2022-09-09T12:03:54;9.85;;;7.43;;
7179;SDS011;3631;42.152;24.756;2022-09-09T12:06:33;8.63;;;7.50;;
7179;SDS011;3631;42.152;24.756;2022-09-09T12:09:15;7.50;;;6.97;;
7179;SDS011;3631;42.152;24.756;2022-09-09T12:11:48;7.80;;;6.95;;
7179;SDS011;3631;42.152;24.756;2022-09-09T12:14:22;7.80;;;6.55;;
7179;SDS011;3631;42.152;24.756;2022-09-09T12:17:09;10.85;;;6.85;;
7179;SDS011;3631;42.152;24.756;2022-09-09T12:19:44;7.43;;;6.68;;
7179;SDS011;3631;42.152;24.756;2022-09-09T12:22:14;7.22;;;6.68;;
7179;SDS011;3631;42.152;24.756;2022-09-09T12:24:52;7.93;;;7.25;;
7179;SDS011;3631;42.152;24.756;2022-09-09T12:27:27;7.93;;;7.43;;
7179;SDS011;3631;42.152;24.756;2022-09-09T12:29:59;9.65;;;6.78;;
7179;SDS011;3631;42.152;24.756;2022-09-09T12:32:31;8.00;;;7.30;;
7179;SDS011;3631;42.152;24.756;2022-09-09T12:34:59;6.88;;;6.30;;
7179;SDS011;3631;42.152;24.756;2022-09-09T12:37:32;7.65;;;6.90;;
7179;SDS011;3631;42.152;24.756;2022-09-09T12:40:03;7.30;;;6.78;;
7179;SDS011;3631;42.152;24.756;2022-09-09T12:42:32;7.40;;;6.88;;
7179;SDS011;3631;42.152;24.756;2022-09-09T12:44:59;7.78;;;7.07;;
7179;SDS011;3631;42.152;24.756;2022-09-09T12:47:34;10.88;;;7.18;;
7179;SDS011;3631;42.152;24.756;2022-09-09T12:50:11;7.90;;;7.20;;
7179;SDS011;3631;42.152;24.756;2022-09-09T12:52:44;8.05;;;7.18;;
7179;SDS011;3631;42.152;24.756;2022-09-09T12:55:16;9.63;;;7.57;;
7179;SDS011;3631;42.152;24.756;2022-09-09T12:57:46;7.88;;;6.78;;
7179;SDS011;3631;42.152;24.756;2022-09-09T13:00:20;8.13;;;7.38;;
7179;SDS011;3631;42.152;24.756;2022-09-09T13:02:55;7.53;;;6.95;;
7179;SDS011;3631;42.152;24.756;2022-09-09T13:05:24;11.98;;;7.57;;
7179;SDS011;3631;42.152;24.756;2022-09-09T13:08:01;8.30;;;7.50;;
7179;SDS011;3631;42.152;24.756;2022-09-09T13:10:30;9.60;;;7.13;;
7179;SDS011;3631;42.152;24.756;2022-09-09T13:13:00;8.48;;;7.78;;
7179;SDS011;3631;42.152;24.756;2022-09-09T13:15:28;8.27;;;7.53;;
7179;SDS011;3631;42.152;24.756;2022-09-09T13:17:56;10.20;;;6.88;;
7179;SDS011;3631;42.152;24.756;2022-09-09T13:20:26;7.13;;;6.57;;
7179;SDS011;3631;42.152;24.756;2022-09-09T13:22:54;8.70;;;7.03;;
7179;SDS011;3631;42.152;24.756;2022-09-09T13:25:25;13.80;;;7.32;;
7179;SDS011;3631;42.152;24.756;2022-09-09T13:27:58;9.52;;;8.93;;
7179;SDS011;3631;42.152;24.756;2022-09-09T13:30:28;9.00;;;7.95;;
7179;SDS011;3631;42.152;24.756;2022-09-09T13:33:00;10.80;;;7.97;;
7179;SDS011;3631;42.152;24.756;2022-09-09T13:35:32;9.23;;;7.68;;
7179;SDS011;3631;42.152;24.756;2022-09-09T13:38:06;9.18;;;8.38;;
7179;SDS011;3631;42.152;24.756;2022-09-09T13:40:37;11.07;;;9.18;;
7179;SDS011;3631;42.152;24.756;2022-09-09T13:43:04;9.10;;;8.38;;
7179;SDS011;3631;42.152;24.756;2022-09-09T13:45:31;8.02;;;7.50;;
7179;SDS011;3631;42.152;24.756;2022-09-09T13:48:07;8.95;;;7.32;;
7179;SDS011;3631;42.152;24.756;2022-09-09T13:50:36;12.02;;;11.00;;
7179;SDS011;3631;42.152;24.756;2022-09-09T13:53:03;10.50;;;9.57;;
7179;SDS011;3631;42.152;24.756;2022-09-09T13:55:30;9.85;;;8.00;;
7179;SDS011;3631;42.152;24.756;2022-09-09T13:57:59;11.32;;;10.35;;
7179;SDS011;3631;42.152;24.756;2022-09-09T14:00:29;10.68;;;9.80;;
7179;SDS011;3631;42.152;24.756;2022-09-09T14:02:57;10.27;;;7.90;;
7179;SDS011;3631;42.152;24.756;2022-09-09T14:05:27;9.73;;;8.80;;
7179;SDS011;3631;42.152;24.756;2022-09-09T14:07:56;8.95;;;8.20;;
7179;SDS011;3631;42.152;24.756;2022-09-09T14:10:25;9.15;;;8.27;;
7179;SDS011;3631;42.152;24.756;2022-09-09T14:12:52;11.35;;;8.27;;
7179;SDS011;3631;42.152;24.756;2022-09-09T14:15:21;13.30;;;11.95;;
7179;SDS011;3631;42.152;24.756;2022-09-09T14:17:48;10.57;;;9.68;;
7179;SDS011;3631;42.152;24.756;2022-09-09T14:20:15;9.93;;;8.93;;
7179;SDS011;3631;42.152;24.756;2022-09-09T14:22:42;9.07;;;8.40;;
7179;SDS011;3631;42.152;24.756;2022-09-09T14:25:10;9.70;;;8.88;;
7179;SDS011;3631;42.152;24.756;2022-09-09T14:27:38;10.50;;;9.50;;
7179;SDS011;3631;42.152;24.756;2022-09-09T14:30:06;10.38;;;9.40;;
7179;SDS011;3631;42.152;24.756;2022-09-09T14:32:35;12.82;;;9.35;;
7179;SDS011;3631;42.152;24.756;2022-09-09T14:35:02;10.00;;;8.98;;
7179;SDS011;3631;42.152;24.756;2022-09-09T14:37:29;11.85;;;10.23;;
7179;SDS011;3631;42.152;24.756;2022-09-09T14:39:57;10.88;;;9.80;;
7179;SDS011;3631;42.152;24.756;2022-09-09T14:42:24;14.07;;;11.15;;
7179;SDS011;3631;42.152;24.756;2022-09-09T14:44:51;10.40;;;9.55;;
7179;SDS011;3631;42.152;24.756;2022-09-09T14:47:18;11.02;;;10.00;;
7179;SDS011;3631;42.152;24.756;2022-09-09T14:49:47;11.65;;;9.52;;
7179;SDS011;3631;42.152;24.756;2022-09-09T14:52:14;14.18;;;9.93;;
7179;SDS011;3631;42.152;24.756;2022-09-09T14:54:41;13.13;;;9.25;;
7179;SDS011;3631;42.152;24.756;2022-09-09T14:57:08;18.15;;;9.95;;
7179;SDS011;3631;42.152;24.756;2022-09-09T14:59:35;13.20;;;8.82;;
7179;SDS011;3631;42.152;24.756;2022-09-09T15:02:02;16.23;;;11.95;;
7179;SDS011;3631;42.152;24.756;2022-09-09T15:04:29;14.13;;;9.32;;
7179;SDS011;3631;42.152;24.756;2022-09-09T15:06:58;10.00;;;8.95;;
7179;SDS011;3631;42.152;24.756;2022-09-09T15:09:25;12.00;;;9.43;;
7179;SDS011;3631;42.152;24.756;2022-09-09T15:11:52;31.23;;;21.55;;
7179;SDS011;3631;42.152;24.756;2022-09-09T15:14:19;16.92;;;13.18;;
7179;SDS011;3631;42.152;24.756;2022-09-09T15:16:46;10.82;;;10.07;;
7179;SDS011;3631;42.152;24.756;2022-09-09T15:19:12;17.30;;;15.40;;
7179;SDS011;3631;42.152;24.756;2022-09-09T15:21:39;21.75;;;15.82;;
7179;SDS011;3631;42.152;24.756;2022-09-09T15:24:08;15.45;;;12.30;;